sensor_id;sensor_type;location;lat;lon;timestamp;temperature;humidity
52211;DHT22;38179;52.756;6.906;2023-09-18T00:00:51;17.60;99.90
52211;DHT22;38179;52.756;6.906;2023-09-18T00:03:18;17.60;99.90
52211;DHT22;38179;52.756;6.906;2023-09-18T00:05:48;17.60;99.90
52211;DHT22;38179;52.756;6.906;2023-09-18T00:08:15;17.50;99.90
52211;DHT22;38179;52.756;6.906;2023-09-18T00:10:41;17.50;99.90
52211;DHT22;38179;52.756;6.906;2023-09-18T00:13:07;17.50;99.90
52211;DHT22;38179;52.756;6.906;2023-09-18T00:15:33;17.50;99.90
52211;DHT22;38179;52.756;6.906;2023-09-18T00:17:59;17.50;99.90
52211;DHT22;38179;52.756;6.906;2023-09-18T00:20:25;17.50;99.90
52211;DHT22;38179;52.756;6.906;2023-09-18T00:22:54;17.50;99.90
52211;DHT22;38179;52.756;6.906;2023-09-18T00:25:21;17.60;99.90
52211;DHT22;38179;52.756;6.906;2023-09-18T00:27:47;17.60;99.90
52211;DHT22;38179;52.756;6.906;2023-09-18T00:30:15;17.60;99.90
52211;DHT22;38179;52.756;6.906;2023-09-18T00:32:40;17.60;99.90
52211;DHT22;38179;52.756;6.906;2023-09-18T00:35:07;17.60;99.90
52211;DHT22;38179;52.756;6.906;2023-09-18T00:37:33;17.60;99.90
52211;DHT22;38179;52.756;6.906;2023-09-18T00:39:58;17.60;99.90
52211;DHT22;38179;52.756;6.906;2023-09-18T00:42:25;17.60;99.90
52211;DHT22;38179;52.756;6.906;2023-09-18T00:44:51;17.60;99.90
52211;DHT22;38179;52.756;6.906;2023-09-18T00:47:16;17.60;99.90
52211;DHT22;38179;52.756;6.906;2023-09-18T00:49:46;17.60;99.90
52211;DHT22;38179;52.756;6.906;2023-09-18T00:52:14;17.60;99.90
52211;DHT22;38179;52.756;6.906;2023-09-18T00:54:40;17.50;99.90
52211;DHT22;38179;52.756;6.906;2023-09-18T00:57:09;17.50;99.90
52211;DHT22;38179;52.756;6.906;2023-09-18T00:59:37;17.50;99.90
52211;DHT22;38179;52.756;6.906;2023-09-18T01:02:03;17.60;99.90
52211;DHT22;38179;52.756;6.906;2023-09-18T01:04:30;17.60;99.90
52211;DHT22;38179;52.756;6.906;2023-09-18T01:07:01;17.60;99.90
52211;DHT22;38179;52.756;6.906;2023-09-18T01:09:35;17.50;99.90
52211;DHT22;38179;52.756;6.906;2023-09-18T01:17:35;17.50;99.90
52211;DHT22;38179;52.756;6.906;2023-09-18T01:20:09;17.50;99.90
52211;DHT22;38179;52.756;6.906;2023-09-18T01:22:35;17.50;99.90
52211;DHT22;38179;52.756;6.906;2023-09-18T01:25:01;17.50;99.90
52211;DHT22;38179;52.756;6.906;2023-09-18T01:27:28;17.50;99.90
52211;DHT22;38179;52.756;6.906;2023-09-18T01:29:54;17.50;99.90
52211;DHT22;38179;52.756;6.906;2023-09-18T01:32:21;17.50;99.90
52211;DHT22;38179;52.756;6.906;2023-09-18T01:34:56;17.50;99.90
52211;DHT22;38179;52.756;6.906;2023-09-18T01:37:25;17.50;99.90
52211;DHT22;38179;52.756;6.906;2023-09-18T01:39:52;17.50;99.90
52211;DHT22;38179;52.756;6.906;2023-09-18T01:42:19;17.50;99.90
52211;DHT22;38179;52.756;6.906;2023-09-18T01:44:47;17.50;99.90
52211;DHT22;38179;52.756;6.906;2023-09-18T01:47:16;17.50;99.90
52211;DHT22;38179;52.756;6.906;2023-09-18T01:49:43;17.50;99.90
52211;DHT22;38179;52.756;6.906;2023-09-18T01:52:09;17.50;99.90
52211;DHT22;38179;52.756;6.906;2023-09-18T01:54:36;17.50;99.90
52211;DHT22;38179;52.756;6.906;2023-09-18T01:57:05;17.50;99.90
52211;DHT22;38179;52.756;6.906;2023-09-18T01:59:33;17.40;99.90
52211;DHT22;38179;52.756;6.906;2023-09-18T02:01:59;17.50;99.90
52211;DHT22;38179;52.756;6.906;2023-09-18T02:04:25;17.40;99.90
52211;DHT22;38179;52.756;6.906;2023-09-18T02:06:52;17.50;99.90
52211;DHT22;38179;52.756;6.906;2023-09-18T02:09:18;17.50;99.90
52211;DHT22;38179;52.756;6.906;2023-09-18T02:11:46;17.50;99.90
52211;DHT22;38179;52.756;6.906;2023-09-18T02:14:13;17.50;99.90
52211;DHT22;38179;52.756;6.906;2023-09-18T02:16:41;17.50;99.90
52211;DHT22;38179;52.756;6.906;2023-09-18T02:19:11;17.50;99.90
52211;DHT22;38179;52.756;6.906;2023-09-18T02:21:38;17.50;99.90
52211;DHT22;38179;52.756;6.906;2023-09-18T02:24:04;17.50;99.90
52211;DHT22;38179;52.756;6.906;2023-09-18T02:26:30;17.50;99.90
52211;DHT22;38179;52.756;6.906;2023-09-18T02:29:01;17.50;99.90
52211;DHT22;38179;52.756;6.906;2023-09-18T02:31:27;17.50;99.90
52211;DHT22;38179;52.756;6.906;2023-09-18T02:33:53;17.50;99.90
52211;DHT22;38179;52.756;6.906;2023-09-18T02:36:19;17.50;99.90
52211;DHT22;38179;52.756;6.906;2023-09-18T02:38:44;17.50;99.90
52211;DHT22;38179;52.756;6.906;2023-09-18T02:41:10;17.40;99.90
52211;DHT22;38179;52.756;6.906;2023-09-18T02:43:36;17.50;99.90
52211;DHT22;38179;52.756;6.906;2023-09-18T02:46:05;17.50;99.90
52211;DHT22;38179;52.756;6.906;2023-09-18T02:48:40;17.50;99.90
52211;DHT22;38179;52.756;6.906;2023-09-18T02:51:06;17.50;99.90
52211;DHT22;38179;52.756;6.906;2023-09-18T02:53:32;17.50;99.90
52211;DHT22;38179;52.756;6.906;2023-09-18T02:55:59;17.50;99.90
52211;DHT22;38179;52.756;6.906;2023-09-18T02:58:26;17.50;99.90
52211;DHT22;38179;52.756;6.906;2023-09-18T03:00:55;17.50;99.90
52211;DHT22;38179;52.756;6.906;2023-09-18T03:03:21;17.50;99.90
52211;DHT22;38179;52.756;6.906;2023-09-18T03:08:18;17.50;99.90
52211;DHT22;38179;52.756;6.906;2023-09-18T03:10:44;17.50;99.90
52211;DHT22;38179;52.756;6.906;2023-09-18T03:13:13;17.50;99.90
52211;DHT22;38179;52.756;6.906;2023-09-18T03:15:39;17.50;99.90
52211;DHT22;38179;52.756;6.906;2023-09-18T03:18:06;17.50;99.90
52211;DHT22;38179;52.756;6.906;2023-09-18T03:20:33;17.60;99.90
52211;DHT22;38179;52.756;6.906;2023-09-18T03:23:00;17.60;99.90
52211;DHT22;38179;52.756;6.906;2023-09-18T03:25:27;17.60;99.90
52211;DHT22;38179;52.756;6.906;2023-09-18T03:27:54;17.60;99.90
52211;DHT22;38179;52.756;6.906;2023-09-18T03:30:21;17.60;99.90
52211;DHT22;38179;52.756;6.906;2023-09-18T03:32:48;17.60;99.90
52211;DHT22;38179;52.756;6.906;2023-09-18T03:35:14;17.60;99.90
52211;DHT22;38179;52.756;6.906;2023-09-18T03:37:46;17.60;99.90
52211;DHT22;38179;52.756;6.906;2023-09-18T03:40:13;17.60;99.90
52211;DHT22;38179;52.756;6.906;2023-09-18T03:42:40;17.60;99.90
52211;DHT22;38179;52.756;6.906;2023-09-18T03:45:07;17.60;99.90
52211;DHT22;38179;52.756;6.906;2023-09-18T03:47:37;17.60;99.90
52211;DHT22;38179;52.756;6.906;2023-09-18T03:50:09;17.60;99.90
52211;DHT22;38179;52.756;6.906;2023-09-18T03:52:35;17.60;99.90
52211;DHT22;38179;52.756;6.906;2023-09-18T03:55:02;17.60;99.90
52211;DHT22;38179;52.756;6.906;2023-09-18T03:57:28;17.60;99.90
52211;DHT22;38179;52.756;6.906;2023-09-18T03:59:54;17.60;99.90
52211;DHT22;38179;52.756;6.906;2023-09-18T04:02:23;17.60;99.90
52211;DHT22;38179;52.756;6.906;2023-09-18T04:04:49;17.60;99.90
52211;DHT22;38179;52.756;6.906;2023-09-18T04:07:15;17.60;99.90
52211;DHT22;38179;52.756;6.906;2023-09-18T04:09:42;17.60;99.90
52211;DHT22;38179;52.756;6.906;2023-09-18T04:12:08;17.60;99.90
52211;DHT22;38179;52.756;6.906;2023-09-18T04:14:35;17.60;99.90
52211;DHT22;38179;52.756;6.906;2023-09-18T04:17:02;17.60;99.90
52211;DHT22;38179;52.756;6.906;2023-09-18T04:19:28;17.60;99.90
52211;DHT22;38179;52.756;6.906;2023-09-18T04:21:54;17.60;99.90
52211;DHT22;38179;52.756;6.906;2023-09-18T04:24:20;17.60;99.90
52211;DHT22;38179;52.756;6.906;2023-09-18T04:26:48;17.60;99.90
52211;DHT22;38179;52.756;6.906;2023-09-18T04:29:17;17.60;99.90
52211;DHT22;38179;52.756;6.906;2023-09-18T04:31:43;17.50;99.90
52211;DHT22;38179;52.756;6.906;2023-09-18T04:34:11;17.60;99.90
52211;DHT22;38179;52.756;6.906;2023-09-18T04:36:37;17.60;99.90
52211;DHT22;38179;52.756;6.906;2023-09-18T04:39:04;17.60;99.90
52211;DHT22;38179;52.756;6.906;2023-09-18T04:41:31;17.60;99.90
52211;DHT22;38179;52.756;6.906;2023-09-18T04:43:57;17.60;99.90
52211;DHT22;38179;52.756;6.906;2023-09-18T04:46:23;17.60;99.90
52211;DHT22;38179;52.756;6.906;2023-09-18T04:48:50;17.60;99.90
52211;DHT22;38179;52.756;6.906;2023-09-18T04:51:16;17.60;99.90
52211;DHT22;38179;52.756;6.906;2023-09-18T04:53:42;17.60;99.90
52211;DHT22;38179;52.756;6.906;2023-09-18T04:56:08;17.60;99.90
52211;DHT22;38179;52.756;6.906;2023-09-18T04:58:37;17.60;99.90
52211;DHT22;38179;52.756;6.906;2023-09-18T05:01:04;17.60;99.90
52211;DHT22;38179;52.756;6.906;2023-09-18T05:03:34;17.60;99.90
52211;DHT22;38179;52.756;6.906;2023-09-18T05:06:00;17.60;99.90
52211;DHT22;38179;52.756;6.906;2023-09-18T05:08:26;17.60;99.90
52211;DHT22;38179;52.756;6.906;2023-09-18T05:10:52;17.60;99.90
52211;DHT22;38179;52.756;6.906;2023-09-18T05:13:18;17.60;99.90
52211;DHT22;38179;52.756;6.906;2023-09-18T05:15:44;17.60;99.90
52211;DHT22;38179;52.756;6.906;2023-09-18T05:18:10;17.60;99.90
52211;DHT22;38179;52.756;6.906;2023-09-18T05:20:36;17.60;99.90
52211;DHT22;38179;52.756;6.906;2023-09-18T05:23:02;17.60;99.90
52211;DHT22;38179;52.756;6.906;2023-09-18T05:25:29;17.60;99.90
52211;DHT22;38179;52.756;6.906;2023-09-18T05:27:58;17.60;99.90
52211;DHT22;38179;52.756;6.906;2023-09-18T05:30:27;17.60;99.90
52211;DHT22;38179;52.756;6.906;2023-09-18T05:32:57;17.60;99.90
52211;DHT22;38179;52.756;6.906;2023-09-18T05:35:30;17.60;99.90
52211;DHT22;38179;52.756;6.906;2023-09-18T05:37:56;17.60;99.90
52211;DHT22;38179;52.756;6.906;2023-09-18T05:40:24;17.60;99.90
52211;DHT22;38179;52.756;6.906;2023-09-18T05:42:54;17.60;99.90
52211;DHT22;38179;52.756;6.906;2023-09-18T05:45:20;17.70;99.90
52211;DHT22;38179;52.756;6.906;2023-09-18T05:47:47;17.60;99.90
52211;DHT22;38179;52.756;6.906;2023-09-18T05:50:14;17.70;99.90
52211;DHT22;38179;52.756;6.906;2023-09-18T05:52:46;17.70;99.90
52211;DHT22;38179;52.756;6.906;2023-09-18T05:55:14;17.70;99.90
52211;DHT22;38179;52.756;6.906;2023-09-18T05:57:40;17.80;99.90
52211;DHT22;38179;52.756;6.906;2023-09-18T06:00:06;17.80;99.90
52211;DHT22;38179;52.756;6.906;2023-09-18T06:02:41;17.80;99.90
52211;DHT22;38179;52.756;6.906;2023-09-18T06:05:12;17.80;99.90
52211;DHT22;38179;52.756;6.906;2023-09-18T06:07:41;17.90;99.90
52211;DHT22;38179;52.756;6.906;2023-09-18T06:10:07;17.90;99.90
52211;DHT22;38179;52.756;6.906;2023-09-18T06:12:33;18.00;99.90
52211;DHT22;38179;52.756;6.906;2023-09-18T06:14:59;18.10;99.90
52211;DHT22;38179;52.756;6.906;2023-09-18T06:17:25;18.20;99.90
52211;DHT22;38179;52.756;6.906;2023-09-18T06:19:51;18.20;99.90
52211;DHT22;38179;52.756;6.906;2023-09-18T06:22:17;18.30;99.90
52211;DHT22;38179;52.756;6.906;2023-09-18T06:24:43;18.30;99.90
52211;DHT22;38179;52.756;6.906;2023-09-18T06:27:09;18.40;99.90
52211;DHT22;38179;52.756;6.906;2023-09-18T06:29:36;18.40;99.90
52211;DHT22;38179;52.756;6.906;2023-09-18T06:32:04;18.40;99.90
52211;DHT22;38179;52.756;6.906;2023-09-18T06:34:31;18.40;99.90
52211;DHT22;38179;52.756;6.906;2023-09-18T06:36:57;18.40;99.90
52211;DHT22;38179;52.756;6.906;2023-09-18T06:39:23;18.40;99.90
52211;DHT22;38179;52.756;6.906;2023-09-18T06:41:50;18.40;99.90
52211;DHT22;38179;52.756;6.906;2023-09-18T06:44:16;18.40;99.90
52211;DHT22;38179;52.756;6.906;2023-09-18T06:46:42;18.40;99.90
52211;DHT22;38179;52.756;6.906;2023-09-18T06:49:08;18.40;99.90
52211;DHT22;38179;52.756;6.906;2023-09-18T06:51:33;18.40;99.90
52211;DHT22;38179;52.756;6.906;2023-09-18T06:53:59;18.40;99.90
52211;DHT22;38179;52.756;6.906;2023-09-18T06:56:28;18.50;99.90
52211;DHT22;38179;52.756;6.906;2023-09-18T06:58:54;18.60;99.90
52211;DHT22;38179;52.756;6.906;2023-09-18T07:01:21;18.70;99.90
52211;DHT22;38179;52.756;6.906;2023-09-18T07:03:51;18.70;99.90
52211;DHT22;38179;52.756;6.906;2023-09-18T07:06:17;18.80;99.90
52211;DHT22;38179;52.756;6.906;2023-09-18T07:08:47;18.90;99.90
52211;DHT22;38179;52.756;6.906;2023-09-18T07:11:17;18.90;99.90
52211;DHT22;38179;52.756;6.906;2023-09-18T07:13:43;18.90;99.90
52211;DHT22;38179;52.756;6.906;2023-09-18T07:16:10;18.80;99.90
52211;DHT22;38179;52.756;6.906;2023-09-18T07:18:36;18.80;99.90
52211;DHT22;38179;52.756;6.906;2023-09-18T07:21:02;18.80;99.90
52211;DHT22;38179;52.756;6.906;2023-09-18T07:23:28;18.80;99.90
52211;DHT22;38179;52.756;6.906;2023-09-18T07:25:54;18.80;99.90
52211;DHT22;38179;52.756;6.906;2023-09-18T07:28:20;18.80;99.90
52211;DHT22;38179;52.756;6.906;2023-09-18T07:30:47;18.80;99.90
52211;DHT22;38179;52.756;6.906;2023-09-18T07:33:14;18.80;99.90
52211;DHT22;38179;52.756;6.906;2023-09-18T07:35:49;18.70;99.90
52211;DHT22;38179;52.756;6.906;2023-09-18T07:38:17;18.80;99.90
52211;DHT22;38179;52.756;6.906;2023-09-18T07:40:45;18.80;99.90
52211;DHT22;38179;52.756;6.906;2023-09-18T07:43:13;18.80;99.90
52211;DHT22;38179;52.756;6.906;2023-09-18T07:45:40;18.80;99.90
52211;DHT22;38179;52.756;6.906;2023-09-18T07:48:07;18.80;99.90
52211;DHT22;38179;52.756;6.906;2023-09-18T07:50:34;18.90;99.90
52211;DHT22;38179;52.756;6.906;2023-09-18T07:53:01;18.90;99.90
52211;DHT22;38179;52.756;6.906;2023-09-18T07:55:28;18.90;99.90
52211;DHT22;38179;52.756;6.906;2023-09-18T07:57:56;18.90;99.90
52211;DHT22;38179;52.756;6.906;2023-09-18T08:00:22;18.90;99.90
52211;DHT22;38179;52.756;6.906;2023-09-18T08:02:52;18.90;99.90
52211;DHT22;38179;52.756;6.906;2023-09-18T08:05:25;19.00;99.90
52211;DHT22;38179;52.756;6.906;2023-09-18T08:07:56;19.00;99.90
52211;DHT22;38179;52.756;6.906;2023-09-18T08:10:23;19.00;99.90
52211;DHT22;38179;52.756;6.906;2023-09-18T08:12:49;19.00;99.90
52211;DHT22;38179;52.756;6.906;2023-09-18T08:15:18;19.00;99.90
52211;DHT22;38179;52.756;6.906;2023-09-18T08:17:44;19.00;99.90
52211;DHT22;38179;52.756;6.906;2023-09-18T08:20:12;19.00;99.90
52211;DHT22;38179;52.756;6.906;2023-09-18T08:22:40;19.00;99.90
52211;DHT22;38179;52.756;6.906;2023-09-18T08:25:07;19.00;99.90
52211;DHT22;38179;52.756;6.906;2023-09-18T08:27:39;18.90;99.90
52211;DHT22;38179;52.756;6.906;2023-09-18T08:30:13;19.00;99.90
52211;DHT22;38179;52.756;6.906;2023-09-18T08:32:41;18.90;99.90
52211;DHT22;38179;52.756;6.906;2023-09-18T08:35:08;19.00;99.90
52211;DHT22;38179;52.756;6.906;2023-09-18T08:37:34;19.00;99.90
52211;DHT22;38179;52.756;6.906;2023-09-18T08:40:00;19.00;99.90
52211;DHT22;38179;52.756;6.906;2023-09-18T08:42:36;19.00;99.90
52211;DHT22;38179;52.756;6.906;2023-09-18T08:45:08;19.10;99.90
52211;DHT22;38179;52.756;6.906;2023-09-18T08:47:37;19.20;99.90
52211;DHT22;38179;52.756;6.906;2023-09-18T08:50:03;19.20;99.90
52211;DHT22;38179;52.756;6.906;2023-09-18T08:52:30;19.20;99.90
52211;DHT22;38179;52.756;6.906;2023-09-18T08:54:57;19.20;99.90
52211;DHT22;38179;52.756;6.906;2023-09-18T08:57:24;19.30;99.90
52211;DHT22;38179;52.756;6.906;2023-09-18T08:59:53;19.30;99.90
52211;DHT22;38179;52.756;6.906;2023-09-18T09:02:20;19.40;99.90
52211;DHT22;38179;52.756;6.906;2023-09-18T09:04:45;19.40;99.90
52211;DHT22;38179;52.756;6.906;2023-09-18T09:07:11;19.50;99.90
52211;DHT22;38179;52.756;6.906;2023-09-18T09:09:37;19.50;99.90
52211;DHT22;38179;52.756;6.906;2023-09-18T09:12:04;19.60;99.90
52211;DHT22;38179;52.756;6.906;2023-09-18T09:14:30;19.60;99.90
52211;DHT22;38179;52.756;6.906;2023-09-18T09:16:56;19.60;99.90
52211;DHT22;38179;52.756;6.906;2023-09-18T09:19:34;19.60;99.90
52211;DHT22;38179;52.756;6.906;2023-09-18T09:22:02;19.60;99.90
52211;DHT22;38179;52.756;6.906;2023-09-18T09:24:41;19.70;99.90
52211;DHT22;38179;52.756;6.906;2023-09-18T09:27:11;19.70;99.90
52211;DHT22;38179;52.756;6.906;2023-09-18T09:29:38;19.80;99.90
52211;DHT22;38179;52.756;6.906;2023-09-18T09:32:17;19.90;99.90
52211;DHT22;38179;52.756;6.906;2023-09-18T09:34:45;19.90;99.90
52211;DHT22;38179;52.756;6.906;2023-09-18T09:37:12;19.90;99.90
52211;DHT22;38179;52.756;6.906;2023-09-18T09:39:49;19.90;99.90
52211;DHT22;38179;52.756;6.906;2023-09-18T09:42:18;20.00;99.90
52211;DHT22;38179;52.756;6.906;2023-09-18T09:45:04;20.00;99.90
52211;DHT22;38179;52.756;6.906;2023-09-18T09:47:34;20.00;99.90
52211;DHT22;38179;52.756;6.906;2023-09-18T09:50:15;20.10;99.90
52211;DHT22;38179;52.756;6.906;2023-09-18T09:52:52;20.10;99.90
52211;DHT22;38179;52.756;6.906;2023-09-18T09:55:31;20.20;99.90
52211;DHT22;38179;52.756;6.906;2023-09-18T09:58:04;20.30;99.90
52211;DHT22;38179;52.756;6.906;2023-09-18T10:03:13;20.40;99.90
52211;DHT22;38179;52.756;6.906;2023-09-18T10:05:43;20.30;99.90
52211;DHT22;38179;52.756;6.906;2023-09-18T10:08:18;20.40;99.90
52211;DHT22;38179;52.756;6.906;2023-09-18T10:10:55;20.30;99.90
52211;DHT22;38179;52.756;6.906;2023-09-18T10:16:07;20.30;99.90
52211;DHT22;38179;52.756;6.906;2023-09-18T10:24:28;20.40;99.90
52211;DHT22;38179;52.756;6.906;2023-09-18T10:27:00;20.40;99.90
52211;DHT22;38179;52.756;6.906;2023-09-18T10:29:30;20.40;99.90
52211;DHT22;38179;52.756;6.906;2023-09-18T10:31:57;20.40;99.90
52211;DHT22;38179;52.756;6.906;2023-09-18T10:34:25;20.40;99.90
52211;DHT22;38179;52.756;6.906;2023-09-18T10:36:52;20.50;99.90
52211;DHT22;38179;52.756;6.906;2023-09-18T10:39:23;20.50;99.90
52211;DHT22;38179;52.756;6.906;2023-09-18T10:41:55;20.60;99.90
52211;DHT22;38179;52.756;6.906;2023-09-18T10:44:25;20.60;99.90
52211;DHT22;38179;52.756;6.906;2023-09-18T10:46:52;20.70;99.90
52211;DHT22;38179;52.756;6.906;2023-09-18T10:49:21;20.60;99.90
52211;DHT22;38179;52.756;6.906;2023-09-18T10:54:24;20.70;99.90
52211;DHT22;38179;52.756;6.906;2023-09-18T10:56:51;20.70;99.90
52211;DHT22;38179;52.756;6.906;2023-09-18T10:59:17;20.80;99.90
52211;DHT22;38179;52.756;6.906;2023-09-18T11:01:44;20.80;99.90
52211;DHT22;38179;52.756;6.906;2023-09-18T11:04:10;20.90;99.90
52211;DHT22;38179;52.756;6.906;2023-09-18T11:09:21;21.10;99.90
52211;DHT22;38179;52.756;6.906;2023-09-18T11:12:08;21.10;99.90
52211;DHT22;38179;52.756;6.906;2023-09-18T11:17:37;21.20;99.90
52211;DHT22;38179;52.756;6.906;2023-09-18T11:20:20;21.20;99.90
52211;DHT22;38179;52.756;6.906;2023-09-18T11:25:42;21.20;99.90
52211;DHT22;38179;52.756;6.906;2023-09-18T11:28:16;21.30;99.90
52211;DHT22;38179;52.756;6.906;2023-09-18T11:30:53;21.30;99.90
52211;DHT22;38179;52.756;6.906;2023-09-18T11:33:38;21.30;99.90
52211;DHT22;38179;52.756;6.906;2023-09-18T11:38:35;21.20;99.90
52211;DHT22;38179;52.756;6.906;2023-09-18T11:41:27;21.10;99.90
52211;DHT22;38179;52.756;6.906;2023-09-18T11:46:49;21.30;99.90
52211;DHT22;38179;52.756;6.906;2023-09-18T11:49:21;21.30;99.90
52211;DHT22;38179;52.756;6.906;2023-09-18T11:51:54;21.40;99.90
52211;DHT22;38179;52.756;6.906;2023-09-18T11:54:20;21.50;99.90
52211;DHT22;38179;52.756;6.906;2023-09-18T11:56:49;21.50;99.90
52211;DHT22;38179;52.756;6.906;2023-09-18T11:59:15;21.60;99.90
52211;DHT22;38179;52.756;6.906;2023-09-18T12:01:42;21.60;99.90
52211;DHT22;38179;52.756;6.906;2023-09-18T12:04:12;21.60;99.90
52211;DHT22;38179;52.756;6.906;2023-09-18T12:06:40;21.60;99.90
52211;DHT22;38179;52.756;6.906;2023-09-18T12:09:07;21.70;99.90
52211;DHT22;38179;52.756;6.906;2023-09-18T12:11:36;21.80;99.90
52211;DHT22;38179;52.756;6.906;2023-09-18T12:14:04;21.80;99.90
52211;DHT22;38179;52.756;6.906;2023-09-18T12:16:37;21.70;99.90
52211;DHT22;38179;52.756;6.906;2023-09-18T12:19:04;21.60;99.90
52211;DHT22;38179;52.756;6.906;2023-09-18T12:21:32;21.60;99.90
52211;DHT22;38179;52.756;6.906;2023-09-18T12:23:58;21.60;99.90
52211;DHT22;38179;52.756;6.906;2023-09-18T12:26:25;21.50;99.90
52211;DHT22;38179;52.756;6.906;2023-09-18T12:28:53;21.50;99.90
52211;DHT22;38179;52.756;6.906;2023-09-18T12:31:21;21.40;99.90
52211;DHT22;38179;52.756;6.906;2023-09-18T12:33:48;21.50;99.90
52211;DHT22;38179;52.756;6.906;2023-09-18T12:36:19;21.50;99.90
52211;DHT22;38179;52.756;6.906;2023-09-18T12:38:55;21.50;99.90
52211;DHT22;38179;52.756;6.906;2023-09-18T12:41:23;21.50;99.90
52211;DHT22;38179;52.756;6.906;2023-09-18T12:43:50;21.60;99.90
52211;DHT22;38179;52.756;6.906;2023-09-18T12:46:16;21.50;99.90
52211;DHT22;38179;52.756;6.906;2023-09-18T12:48:44;21.50;99.90
52211;DHT22;38179;52.756;6.906;2023-09-18T12:51:13;21.40;99.90
52211;DHT22;38179;52.756;6.906;2023-09-18T12:53:40;21.60;99.90
52211;DHT22;38179;52.756;6.906;2023-09-18T12:56:11;21.70;99.90
52211;DHT22;38179;52.756;6.906;2023-09-18T12:58:41;21.70;99.90
52211;DHT22;38179;52.756;6.906;2023-09-18T13:01:09;21.80;99.90
52211;DHT22;38179;52.756;6.906;2023-09-18T13:03:46;21.80;99.90
52211;DHT22;38179;52.756;6.906;2023-09-18T13:06:16;22.00;99.90
52211;DHT22;38179;52.756;6.906;2023-09-18T13:08:46;22.10;99.90
52211;DHT22;38179;52.756;6.906;2023-09-18T13:11:12;22.20;99.90
52211;DHT22;38179;52.756;6.906;2023-09-18T13:13:40;22.30;99.90
52211;DHT22;38179;52.756;6.906;2023-09-18T13:16:08;22.30;99.90
52211;DHT22;38179;52.756;6.906;2023-09-18T13:18:37;22.30;99.90
52211;DHT22;38179;52.756;6.906;2023-09-18T13:21:12;22.20;99.90
52211;DHT22;38179;52.756;6.906;2023-09-18T13:23:39;22.10;99.90
52211;DHT22;38179;52.756;6.906;2023-09-18T13:26:06;21.90;99.90
52211;DHT22;38179;52.756;6.906;2023-09-18T13:28:34;21.70;99.90
52211;DHT22;38179;52.756;6.906;2023-09-18T13:31:02;21.60;99.90
52211;DHT22;38179;52.756;6.906;2023-09-18T13:33:33;21.60;99.90
52211;DHT22;38179;52.756;6.906;2023-09-18T13:35:59;21.50;99.90
52211;DHT22;38179;52.756;6.906;2023-09-18T13:38:25;21.50;99.90
52211;DHT22;38179;52.756;6.906;2023-09-18T13:40:54;21.40;99.90
52211;DHT22;38179;52.756;6.906;2023-09-18T13:43:20;21.50;99.90
52211;DHT22;38179;52.756;6.906;2023-09-18T13:45:49;21.70;99.90
52211;DHT22;38179;52.756;6.906;2023-09-18T13:48:17;21.70;99.90
52211;DHT22;38179;52.756;6.906;2023-09-18T13:50:44;21.60;99.90
52211;DHT22;38179;52.756;6.906;2023-09-18T13:53:10;21.70;99.90
52211;DHT22;38179;52.756;6.906;2023-09-18T13:55:36;21.70;99.90
52211;DHT22;38179;52.756;6.906;2023-09-18T13:58:02;21.70;99.90
52211;DHT22;38179;52.756;6.906;2023-09-18T14:00:29;21.80;99.90
52211;DHT22;38179;52.756;6.906;2023-09-18T14:02:55;21.80;99.90
52211;DHT22;38179;52.756;6.906;2023-09-18T14:05:21;21.80;99.90
52211;DHT22;38179;52.756;6.906;2023-09-18T14:07:47;21.90;99.90
52211;DHT22;38179;52.756;6.906;2023-09-18T14:10:13;21.90;99.90
52211;DHT22;38179;52.756;6.906;2023-09-18T14:12:41;21.90;99.90
52211;DHT22;38179;52.756;6.906;2023-09-18T14:15:08;21.90;99.90
52211;DHT22;38179;52.756;6.906;2023-09-18T14:17:34;21.90;99.90
52211;DHT22;38179;52.756;6.906;2023-09-18T14:20:00;22.00;99.90
52211;DHT22;38179;52.756;6.906;2023-09-18T14:22:26;22.00;99.90
52211;DHT22;38179;52.756;6.906;2023-09-18T14:24:53;22.00;99.90
52211;DHT22;38179;52.756;6.906;2023-09-18T14:27:19;22.00;99.90
52211;DHT22;38179;52.756;6.906;2023-09-18T14:29:45;21.90;99.90
52211;DHT22;38179;52.756;6.906;2023-09-18T14:32:11;21.80;99.90
52211;DHT22;38179;52.756;6.906;2023-09-18T14:34:37;21.70;99.90
52211;DHT22;38179;52.756;6.906;2023-09-18T14:37:03;21.60;99.90
52211;DHT22;38179;52.756;6.906;2023-09-18T14:39:32;21.60;99.90
52211;DHT22;38179;52.756;6.906;2023-09-18T14:41:59;21.70;99.90
52211;DHT22;38179;52.756;6.906;2023-09-18T14:44:25;21.80;99.90
52211;DHT22;38179;52.756;6.906;2023-09-18T14:46:53;21.80;99.90
52211;DHT22;38179;52.756;6.906;2023-09-18T14:49:21;21.70;99.90
52211;DHT22;38179;52.756;6.906;2023-09-18T14:51:47;21.70;99.90
52211;DHT22;38179;52.756;6.906;2023-09-18T14:54:15;21.70;99.90
52211;DHT22;38179;52.756;6.906;2023-09-18T14:56:41;21.70;99.90
52211;DHT22;38179;52.756;6.906;2023-09-18T14:59:07;21.70;99.90
52211;DHT22;38179;52.756;6.906;2023-09-18T15:01:34;21.70;99.90
52211;DHT22;38179;52.756;6.906;2023-09-18T15:04:00;21.80;99.90
52211;DHT22;38179;52.756;6.906;2023-09-18T15:06:44;21.80;99.90
52211;DHT22;38179;52.756;6.906;2023-09-18T15:09:10;21.80;99.90
52211;DHT22;38179;52.756;6.906;2023-09-18T15:11:36;21.80;99.90
52211;DHT22;38179;52.756;6.906;2023-09-18T15:14:05;21.80;99.90
52211;DHT22;38179;52.756;6.906;2023-09-18T15:16:31;21.80;99.90
52211;DHT22;38179;52.756;6.906;2023-09-18T15:18:57;21.80;99.90
52211;DHT22;38179;52.756;6.906;2023-09-18T15:21:30;21.90;99.90
52211;DHT22;38179;52.756;6.906;2023-09-18T15:23:56;21.90;99.90
52211;DHT22;38179;52.756;6.906;2023-09-18T15:26:23;21.90;99.90
52211;DHT22;38179;52.756;6.906;2023-09-18T15:28:49;21.80;99.90
52211;DHT22;38179;52.756;6.906;2023-09-18T15:31:15;21.80;99.90
52211;DHT22;38179;52.756;6.906;2023-09-18T15:33:41;21.80;99.90
52211;DHT22;38179;52.756;6.906;2023-09-18T15:36:07;21.80;99.90
52211;DHT22;38179;52.756;6.906;2023-09-18T15:38:33;21.80;99.90
52211;DHT22;38179;52.756;6.906;2023-09-18T15:40:59;21.80;99.90
52211;DHT22;38179;52.756;6.906;2023-09-18T15:43:25;21.90;99.90
52211;DHT22;38179;52.756;6.906;2023-09-18T15:48:27;21.90;99.90
52211;DHT22;38179;52.756;6.906;2023-09-18T15:50:53;21.90;99.90
52211;DHT22;38179;52.756;6.906;2023-09-18T15:53:19;21.90;99.90
52211;DHT22;38179;52.756;6.906;2023-09-18T15:55:45;21.90;99.90
52211;DHT22;38179;52.756;6.906;2023-09-18T15:58:11;21.90;99.90
52211;DHT22;38179;52.756;6.906;2023-09-18T16:00:37;21.80;99.90
52211;DHT22;38179;52.756;6.906;2023-09-18T16:03:04;21.90;99.90
52211;DHT22;38179;52.756;6.906;2023-09-18T16:05:30;21.90;99.90
52211;DHT22;38179;52.756;6.906;2023-09-18T16:07:56;21.90;99.90
52211;DHT22;38179;52.756;6.906;2023-09-18T16:10:28;21.90;99.90
52211;DHT22;38179;52.756;6.906;2023-09-18T16:12:54;21.80;99.90